Hlavní strana
METAR-TAF:

METAR-TAF

Letiště :

Middle Peninsula Regional Airport

West Point, Virginie, Spojené státy americké

zeměpisná šířka: 37-31-16N, zeměpisná délka: 076-45-52W, výška: 7 m

Aktuální stav počasí

Zpráva byla vytvořena před 15 minutami, v 00:15 UTC
Severoseverovýchodní vítr 3 kt
Teplota 21°C
Vlhkost vzduchu 64%
Tlak 1004 hPa
Viditelnost: 16.1 km
Oblačno až skoro zataženo ve výšce 8000 ft
Zataženo ve výšce 11000 ft

METAR: KFYJ 090015Z AUTO 03003KT 10SM BKN080 OVC110 21/14 A2964 RMK AO1 T02140135

Čas: 20:30 (00:30 UTC)


TAF: chybějící

Stav a předpovědi počasí z více než 4 000 letišť (zprávy METAR a TAF).

Červené a žluté tečky na mapě představují dostupné meteorologické stanice.

Když kurzor umístíte na tečku, zobrazí se název stanice.

Pak kliknutím zobrazíte stav a předpověď počasí.

Chcete-li změnit mapu, kliknutím na zelené tlačítko se znaménkem +mapu přiblížíte, kliknutím na zelené tlačítko se znaménkem – mapu oddálíte a kliknutím na zelené šipky přejdete na sousední mapy.


METAR-TAF: